Main page
METAR-TAF:

METAR-TAF

Airports :

Tunis, Tunisia

Tunis–Carthage International Airport

latitude: 36-50N, longitude: 010-14E, elevation: 3 m

Current weather observation

The report was made 31 minutes ago, at 11:30 UTC
Wind 6 kt from the East, varying between Northeast and East/Southeast
Temperature 38°C
Humidity 23%
Pressure 1011 hPa
Visibility 10 km or more
no clouds below 1500 m and no cumulonimbus

METAR: DTTA 261130Z 08006KT 040V120 CAVOK 38/13 Q1011 NOSIG

Time: 13:01 (12:01 UTC)


TAF: missing

Weather observations and forecasts of more than 4000 airports (METAR and TAF reports).

The available stations are represented by yellow and red dots on the map.

Hover mouse over dot to see the name of the station.

Then click to see weather observations and forecasts.

To change the map : click on the green buttons with a black cross to zoom in, on the green button with a dash to zoom out, or on the green arrows for adjacent maps.


METAR-TAF: